Time,TemperatureF,DewpointF,PressureIn,WindDirection,WindDirectionDegrees,WindSpeedMPH,WindSpeedGustMPH,Humidity,HourlyPrecipIn,Conditions,Clouds,dailyrainin,SoftwareType,DateUTC
2013-12-17 00:29:00,2.4,-5.7,30.18,North,9,2.0,9.0,68,0.00,,,0.00,VWS V14.01,2013-12-17 05:29:00,
2013-12-17 00:59:00,1.3,-6.2,30.18,NNW,333,3.0,5.0,70,0.00,,,0.00,VWS V14.01,2013-12-17 05:59:00,
2013-12-17 01:29:00,0.6,-6.9,30.19,NNW,327,1.0,3.0,70,0.00,,,0.00,VWS V14.01,2013-12-17 06:29:00,
2013-12-17 01:59:00,0.1,-7.1,30.20,NW,308,2.0,3.0,71,0.00,,,0.00,VWS V14.01,2013-12-17 06:59:00,
2013-12-17 02:29:00,-1.8,-8.6,30.21,NNW,346,2.0,5.0,72,0.00,,,0.00,VWS V14.01,2013-12-17 07:29:00,
2013-12-17 02:59:00,-1.0,-7.6,30.22,NNW,340,0.0,4.0,73,0.00,,,0.00,VWS V14.01,2013-12-17 07:59:00,
2013-12-17 03:29:00,-0.8,-6.8,30.22,NNW,340,2.0,2.0,75,0.00,,,0.00,VWS V14.01,2013-12-17 08:29:00,
2013-12-17 03:59:00,-4.8,-10.1,30.22,WNW,300,0.0,3.0,77,0.00,,,0.00,VWS V14.01,2013-12-17 08:59:00,
2013-12-17 04:29:00,-6.5,-11.0,30.24,West,273,1.0,3.0,80,0.00,,,0.00,VWS V14.01,2013-12-17 09:29:00,
2013-12-17 04:59:00,-8.2,-12.7,30.25,NNW,341,3.0,3.0,80,0.00,,,0.00,VWS V14.01,2013-12-17 09:59:00,
2013-12-17 05:29:00,-8.4,-12.6,30.26,NNW,348,1.0,4.0,81,0.00,,,0.00,VWS V14.01,2013-12-17 10:29:00,
2013-12-17 05:59:00,-9.7,-13.7,30.27,NNW,339,2.0,3.0,82,0.00,,,0.00,VWS V14.01,2013-12-17 10:59:00,
2013-12-17 06:29:00,-9.3,-13.1,30.28,NNW,348,0.0,4.0,83,0.00,,,0.00,VWS V14.01,2013-12-17 11:29:00,
2013-12-17 06:59:00,-9.3,-12.6,30.28,NNW,348,1.0,3.0,85,0.00,,,0.00,VWS V14.01,2013-12-17 11:59:00,
2013-12-17 07:29:00,-10.7,-14.2,30.30,NNW,339,1.0,3.0,84,0.00,,,0.00,VWS V14.01,2013-12-17 12:29:00,
2013-12-17 07:59:00,-9.2,-12.5,30.29,NNW,339,1.0,2.0,85,0.00,,,0.00,VWS V14.01,2013-12-17 12:59:00,
2013-12-17 08:29:00,-6.4,-9.5,30.30,NNW,339,1.0,2.0,86,0.00,,,0.00,VWS V14.01,2013-12-17 13:29:00,
2013-12-17 08:59:00,-2.5,-6.4,30.30,NNW,344,1.0,3.0,83,0.00,,,0.00,VWS V14.01,2013-12-17 13:59:00,
2013-12-17 09:29:00,1.9,-4.2,30.29,North,349,1.0,3.0,75,0.00,,,0.00,VWS V14.01,2013-12-17 14:29:00,
2013-12-17 09:59:00,4.6,-4.2,30.29,North,355,3.0,4.0,66,0.00,,,0.00,VWS V14.01,2013-12-17 14:59:00,
2013-12-17 10:29:00,6.7,-2.2,30.26,North,5,2.0,6.0,66,0.00,,,0.00,VWS V14.01,2013-12-17 15:29:00,
2013-12-17 10:59:00,10.5,1.4,30.26,WNW,296,2.0,4.0,66,0.00,,,0.00,VWS V14.01,2013-12-17 15:59:00,
2013-12-17 11:29:00,12.8,4.2,30.25,North,360,1.0,3.0,68,0.00,,,0.00,VWS V14.01,2013-12-17 16:29:00,
2013-12-17 11:59:00,14.3,8.4,30.24,East,88,2.0,5.0,77,0.00,,,0.00,VWS V14.01,2013-12-17 16:59:00,
2013-12-17 12:29:00,13.7,8.7,30.24,ENE,72,1.0,7.0,80,0.00,,,0.00,VWS V14.01,2013-12-17 17:29:00,
2013-12-17 12:59:00,14.6,9.0,30.22,SE,134,1.0,7.0,78,0.00,,,0.00,VWS V14.01,2013-12-17 17:59:00,
2013-12-17 13:29:00,14.5,9.2,30.22,ENE,63,2.0,6.0,79,0.00,,,0.00,VWS V14.01,2013-12-17 18:29:00,
2013-12-17 13:59:00,15.0,9.7,30.21,ENE,73,3.0,5.0,79,0.00,,,0.00,VWS V14.01,2013-12-17 18:59:00,
2013-12-17 14:29:00,15.0,9.7,30.21,NE,54,2.0,5.0,79,0.00,,,0.00,VWS V14.01,2013-12-17 19:29:00,
2013-12-17 14:59:00,15.4,9.8,30.21,ENE,60,2.0,4.0,78,0.00,,,0.00,VWS V14.01,2013-12-17 19:59:00,
2013-12-17 15:29:00,15.0,9.4,30.20,ENE,58,1.0,6.0,78,0.00,,,0.00,VWS V14.01,2013-12-17 20:29:00,
2013-12-17 15:59:00,14.3,9.0,30.18,NE,48,1.0,3.0,79,0.00,,,0.00,VWS V14.01,2013-12-17 20:59:00,
2013-12-17 16:29:00,13.3,8.0,30.17,NE,46,1.0,3.0,79,0.00,,,0.00,VWS V14.01,2013-12-17 21:29:00,
2013-12-17 16:59:00,13.3,7.7,30.16,NE,47,1.0,3.0,78,0.00,,,0.00,VWS V14.01,2013-12-17 21:59:00,
2013-12-17 17:29:00,13.3,8.0,30.15,NNE,30,1.0,4.0,79,0.00,,,0.00,VWS V14.01,2013-12-17 22:29:00,
2013-12-17 17:59:00,13.9,8.9,30.14,NE,46,1.0,4.0,80,0.00,,,0.00,VWS V14.01,2013-12-17 22:59:00,
2013-12-17 18:29:00,14.3,10.4,30.13,NNE,31,2.0,5.0,84,0.00,,,0.00,VWS V14.01,2013-12-17 23:29:00,
2013-12-17 18:59:00,14.3,11.4,30.12,NE,44,2.0,6.0,88,0.00,,,0.00,VWS V14.01,2013-12-17 23:59:00,
2013-12-17 19:29:00,14.4,11.8,30.13,NNE,15,3.0,5.0,89,0.00,,,0.00,VWS V14.01,2013-12-18 00:29:00,
2013-12-17 19:59:00,14.0,11.4,30.13,North,349,4.0,5.0,89,0.00,,,0.00,VWS V14.01,2013-12-18 00:59:00,
2013-12-17 20:29:00,13.2,10.8,30.10,NNE,12,2.0,9.0,90,0.00,,,0.00,VWS V14.01,2013-12-18 01:29:00,
2013-12-17 20:59:00,13.1,10.7,30.12,North,5,5.0,7.0,90,0.00,,,0.00,VWS V14.01,2013-12-18 01:59:00,
2013-12-17 21:29:00,12.8,10.4,30.10,NNE,12,3.0,5.0,90,0.00,,,0.00,VWS V14.01,2013-12-18 02:29:00,
2013-12-17 21:59:00,13.1,11.0,30.08,NNE,16,1.0,5.0,91,0.00,,,0.00,VWS V14.01,2013-12-18 02:59:00,
2013-12-17 22:29:00,13.5,11.4,30.07,NNW,348,3.0,5.0,91,0.00,,,0.00,VWS V14.01,2013-12-18 03:29:00,
2013-12-17 22:59:00,13.5,11.4,30.05,NE,40,2.0,7.0,91,0.00,,,0.00,VWS V14.01,2013-12-18 03:59:00,
2013-12-17 23:29:00,13.4,11.3,30.03,NNE,13,3.0,6.0,91,0.00,,,0.00,VWS V14.01,2013-12-18 04:29:00,
2013-12-17 23:59:00,13.5,11.4,30.02,NNE,13,4.0,5.0,91,0.00,,,0.00,VWS V14.01,2013-12-18 04:59:00,